New London, New Hampshire
Current Conditions -  °F | °C
As of 12:28 PM on Friday 24 Oct 2014 (Local Time) from KLEB Reporting Station
Overcast Overcast  
Wind Chill: 47°   Ceiling: 1500
Heat Index: 49°   Visibility: 10mi
Dew Point: 40°   Wind: 6mph
Humidity: 71%   Direction: NA
Pressure: 29.76"   Gusts: NA
Location:  43.41°N, 71.99°W
Report Text: KLEB 241628Z VRB05KT 10SM OVC015 09/04 A2976 RMK AO2 T00940044
Loading
Personal Weather Stations






























Interactive Weather Map
Tropical Storm Tracking
New forecast layout! Learn more

10-Day Weather Forecast

Advertisements
Track Severe Weather on mobile